-1°C Temp
'.PHP_EOL;
-3°C Dauwpunt
86% Vochtigheid
Temperatuur
5 KM/H
3 MPH
3 KTS
110°
Oost Zuid
Oost

Wind Snelheid
Helder
Luchtdruk 1036.91 (hPa)- 30.62 (in)
Zicht 5 (mi) - 8 (km)

Huidig weer
EHGG
Locatie Eelde 20(km)
Metar:
EHGG 240325Z AUTO 11003KT 8000 NCD M01/M03 Q1037
Sun 24th February 04:25 am

Vliegveld
  Metar Aviation API Data Provided by https://www.checkwx.com/